createdAt,value
2018-11-04T00:01:39.598Z,19.00
2018-11-04T00:04:09.785Z,20.83
2018-11-04T00:06:38.951Z,21.50
2018-11-04T00:09:10.411Z,21.93
2018-11-04T00:11:40.978Z,25.53
2018-11-04T00:14:10.480Z,21.80
2018-11-04T00:16:39.615Z,19.23
2018-11-04T00:19:08.515Z,22.30
2018-11-04T00:21:38.874Z,23.57
2018-11-04T00:24:08.116Z,22.43
2018-11-04T00:26:36.922Z,20.27
2018-11-04T00:29:07.040Z,19.60
2018-11-04T00:31:35.954Z,19.30
2018-11-04T00:34:05.495Z,16.63
2018-11-04T00:36:34.691Z,20.90
2018-11-04T00:39:04.734Z,18.77
2018-11-04T00:41:35.513Z,15.80
2018-11-04T00:44:08.349Z,20.37
2018-11-04T00:46:38.412Z,19.53
2018-11-04T00:49:08.317Z,17.77
2018-11-04T00:51:38.556Z,18.50
2018-11-04T00:54:07.427Z,19.03
2018-11-04T00:56:36.311Z,20.93
2018-11-04T00:59:06.463Z,17.63
2018-11-04T01:01:35.744Z,19.47
2018-11-04T01:04:05.882Z,18.03
2018-11-04T01:06:35.741Z,23.27
2018-11-04T01:09:06.382Z,19.20
2018-11-04T01:11:36.292Z,16.90
2018-11-04T01:14:05.354Z,21.43
2018-11-04T01:16:35.540Z,24.30
2018-11-04T01:19:04.731Z,22.07
2018-11-04T01:21:35.237Z,19.20
2018-11-04T01:24:04.664Z,21.33
2018-11-04T01:26:33.550Z,22.57
2018-11-04T01:29:02.964Z,25.03
2018-11-04T01:31:33.368Z,25.73
2018-11-04T01:34:02.707Z,23.40
2018-11-04T01:36:32.455Z,27.87
2018-11-04T01:39:01.651Z,22.27
2018-11-04T01:41:31.003Z,21.67
2018-11-04T01:44:00.137Z,24.30
2018-11-04T01:46:30.617Z,23.33
2018-11-04T01:49:00.031Z,23.87
2018-11-04T01:51:28.902Z,22.30
2018-11-04T01:53:58.839Z,26.40
2018-11-04T01:56:28.467Z,24.30
2018-11-04T01:58:58.354Z,23.43
2018-11-04T02:01:27.319Z,22.57
2018-11-04T02:03:57.481Z,26.40
2018-11-04T02:06:26.542Z,22.70
2018-11-04T02:08:56.191Z,26.87
2018-11-04T02:11:25.670Z,28.23
2018-11-04T02:13:54.830Z,24.40
2018-11-04T02:16:24.066Z,25.07
2018-11-04T02:18:54.371Z,31.80
2018-11-04T02:21:23.316Z,24.77
2018-11-04T02:23:52.195Z,22.07
2018-11-04T02:26:21.611Z,26.60
2018-11-04T02:28:50.783Z,28.33
2018-11-04T02:31:19.995Z,27.43
2018-11-04T02:33:50.279Z,22.90
2018-11-04T02:36:20.076Z,27.50
2018-11-04T02:38:50.487Z,27.87
2018-11-04T02:41:19.519Z,25.27
2018-11-04T02:43:48.435Z,21.43
2018-11-04T02:46:17.582Z,27.77
2018-11-04T02:48:46.503Z,26.97
2018-11-04T02:51:17.000Z,27.53
2018-11-04T02:53:46.479Z,22.30
2018-11-04T02:56:16.729Z,28.27
2018-11-04T02:58:47.029Z,26.33
2018-11-04T03:01:16.007Z,27.53
2018-11-04T03:03:47.009Z,29.43
2018-11-04T03:06:16.474Z,27.80
2018-11-04T03:08:46.970Z,24.97
2018-11-04T03:11:16.480Z,23.43
2018-11-04T03:13:45.648Z,26.70
2018-11-04T03:16:16.391Z,25.33
2018-11-04T03:18:45.735Z,24.50
2018-11-04T03:21:15.410Z,26.33
2018-11-04T03:23:44.792Z,24.47
2018-11-04T03:26:15.494Z,24.03
2018-11-04T03:28:44.450Z,23.40
2018-11-04T03:31:13.365Z,29.40
2018-11-04T03:33:43.366Z,20.90
2018-11-04T03:36:12.826Z,27.40
2018-11-04T03:38:42.316Z,27.20
2018-11-04T03:41:11.855Z,28.10
2018-11-04T03:43:41.967Z,32.50
2018-11-04T03:46:10.980Z,26.20
2018-11-04T03:48:40.587Z,30.63
2018-11-04T03:51:09.514Z,27.60
2018-11-04T03:53:38.395Z,29.20
2018-11-04T03:56:08.910Z,27.90
2018-11-04T03:58:38.270Z,27.80
2018-11-04T04:01:07.571Z,35.60
2018-11-04T04:03:36.469Z,23.73
2018-11-04T04:06:05.523Z,31.03
2018-11-04T04:08:34.395Z,28.40
2018-11-04T04:11:04.318Z,26.63
2018-11-04T04:13:33.556Z,28.37
2018-11-04T04:16:02.798Z,32.40
2018-11-04T04:18:31.955Z,30.30
2018-11-04T04:21:06.680Z,31.03
2018-11-04T04:23:36.411Z,30.87
2018-11-04T04:26:06.459Z,29.60
2018-11-04T04:28:35.355Z,29.80
2018-11-04T04:31:04.719Z,33.23
2018-11-04T04:33:33.904Z,30.50
2018-11-04T04:36:04.231Z,28.40
2018-11-04T04:38:33.291Z,30.00
2018-11-04T04:41:02.236Z,32.63
2018-11-04T04:43:31.123Z,30.33
2018-11-04T04:46:02.283Z,33.40
2018-11-04T04:48:31.607Z,28.33
2018-11-04T04:51:00.489Z,34.67
2018-11-04T04:53:29.945Z,33.93
2018-11-04T04:55:58.859Z,29.70
2018-11-04T04:58:28.357Z,29.30
2018-11-04T05:00:57.251Z,31.30
2018-11-04T05:03:32.968Z,32.53
2018-11-04T05:06:02.102Z,26.53
2018-11-04T05:08:30.973Z,32.40
2018-11-04T05:11:00.196Z,33.93
2018-11-04T05:13:29.064Z,31.20
2018-11-04T05:15:57.954Z,34.70
2018-11-04T05:18:27.134Z,31.93
2018-11-04T05:20:56.325Z,32.97
2018-11-04T05:23:25.250Z,30.70
2018-11-04T05:25:54.537Z,35.83
2018-11-04T05:28:23.926Z,35.37
2018-11-04T05:30:53.218Z,33.57
2018-11-04T05:33:26.742Z,30.50
2018-11-04T05:36:05.714Z,32.20
2018-11-04T05:38:38.407Z,32.27
2018-11-04T05:41:11.874Z,32.77
2018-11-04T05:43:44.335Z,32.83
2018-11-04T05:46:16.102Z,30.43
2018-11-04T05:48:46.508Z,27.90
2018-11-04T05:51:16.627Z,34.40
2018-11-04T05:53:46.907Z,32.67
2018-11-04T05:56:18.169Z,32.70
2018-11-04T05:58:48.605Z,32.97
2018-11-04T06:01:18.978Z,33.30
2018-11-04T06:03:48.790Z,37.27
2018-11-04T06:06:25.344Z,33.70
2018-11-04T06:08:54.374Z,32.50
2018-11-04T06:11:23.269Z,33.40
2018-11-04T06:13:52.143Z,31.87
2018-11-04T06:16:21.279Z,33.37
2018-11-04T06:18:50.480Z,38.03
2018-11-04T06:21:20.295Z,35.57
2018-11-04T06:23:49.417Z,35.40
2018-11-04T06:26:18.815Z,34.20
2018-11-04T06:28:47.758Z,31.97
2018-11-04T06:31:16.650Z,37.83
2018-11-04T06:33:45.534Z,30.27
2018-11-04T06:36:14.583Z,35.27
2018-11-04T06:38:43.494Z,31.53
2018-11-04T06:41:12.636Z,34.30
2018-11-04T06:43:41.802Z,33.30
2018-11-04T06:46:11.612Z,39.13
2018-11-04T06:48:40.502Z,38.93
2018-11-04T06:51:09.439Z,33.30
2018-11-04T06:53:38.581Z,38.23
2018-11-04T06:56:09.052Z,33.33
2018-11-04T06:58:39.449Z,32.53
2018-11-04T07:01:08.593Z,30.60
2018-11-04T07:03:48.595Z,39.80
2018-11-04T07:06:17.946Z,36.10
2018-11-04T07:08:47.195Z,42.87
2018-11-04T07:11:16.567Z,35.70
2018-11-04T07:13:45.722Z,35.47
2018-11-04T07:16:14.827Z,36.80
2018-11-04T07:18:43.751Z,36.70
2018-11-04T07:21:13.915Z,37.80
2018-11-04T07:23:43.016Z,35.90
2018-11-04T07:26:12.381Z,37.27
2018-11-04T07:28:41.794Z,38.23
2018-11-04T07:31:11.384Z,38.30
2018-11-04T07:33:40.926Z,37.53
2018-11-04T07:36:10.108Z,35.33
2018-11-04T07:38:39.071Z,36.00
2018-11-04T07:41:07.960Z,36.97
2018-11-04T07:43:36.866Z,36.27
2018-11-04T07:46:05.791Z,36.50
2018-11-04T07:48:35.067Z,39.33
2018-11-04T07:51:03.971Z,39.67
2018-11-04T07:53:32.879Z,40.03
2018-11-04T07:56:02.005Z,38.53
2018-11-04T07:58:31.695Z,37.77
2018-11-04T08:01:00.891Z,41.47
2018-11-04T08:03:30.039Z,39.47
2018-11-04T08:05:58.939Z,42.87
2018-11-04T08:08:27.863Z,42.73
2018-11-04T08:10:56.762Z,41.83
2018-11-04T08:13:25.661Z,40.37
2018-11-04T08:15:54.526Z,46.90
2018-11-04T08:18:24.857Z,41.73
2018-11-04T08:20:53.987Z,42.93
2018-11-04T08:23:23.444Z,41.57
2018-11-04T08:25:52.666Z,41.00
2018-11-04T08:28:21.578Z,43.17
2018-11-04T08:30:52.279Z,46.90
2018-11-04T08:33:21.310Z,46.50
2018-11-04T08:35:50.274Z,35.77
2018-11-04T08:38:19.241Z,43.77
2018-11-04T08:40:48.227Z,43.23
2018-11-04T08:43:19.263Z,53.07
2018-11-04T08:45:48.479Z,53.43
2018-11-04T08:48:17.482Z,51.97
2018-11-04T08:50:46.897Z,48.67
2018-11-04T08:53:45.188Z,41.70
2018-11-04T08:56:14.988Z,49.97
2018-11-04T08:58:44.765Z,51.50
2018-11-04T09:01:13.867Z,50.20
2018-11-04T09:03:43.032Z,51.07
2018-11-04T09:06:12.371Z,54.50
2018-11-04T09:08:41.642Z,47.33
2018-11-04T09:11:10.614Z,46.97
2018-11-04T09:13:40.119Z,49.40
2018-11-04T09:16:09.289Z,52.93
2018-11-04T09:18:38.185Z,42.80
2018-11-04T09:21:07.475Z,51.93
2018-11-04T09:23:37.436Z,50.03
2018-11-04T09:26:06.741Z,55.37
2018-11-04T09:28:35.671Z,57.20
2018-11-04T09:31:05.539Z,57.50
2018-11-04T09:33:34.470Z,54.27
2018-11-04T09:36:03.750Z,52.47
2018-11-04T09:38:32.568Z,59.47
2018-11-04T09:41:02.063Z,53.50
2018-11-04T09:43:31.540Z,54.23
2018-11-04T09:46:01.662Z,53.17
2018-11-04T09:48:31.120Z,53.80
2018-11-04T09:51:00.108Z,55.20
2018-11-04T09:53:29.267Z,64.53
2018-11-04T09:55:58.971Z,55.40
2018-11-04T09:58:28.088Z,56.87
2018-11-04T10:00:57.335Z,51.07
2018-11-04T10:03:26.612Z,55.43
2018-11-04T10:05:55.638Z,56.20
2018-11-04T10:08:24.543Z,53.20
2018-11-04T10:10:53.430Z,50.33
2018-11-04T10:13:22.459Z,59.67
2018-11-04T10:15:51.485Z,53.77
2018-11-04T10:18:20.384Z,55.00
2018-11-04T10:20:49.611Z,55.70
2018-11-04T10:23:19.693Z,55.33
2018-11-04T10:25:49.134Z,53.70
2018-11-04T10:28:18.815Z,56.70
2018-11-04T10:30:47.854Z,58.70
2018-11-04T10:33:17.642Z,52.00
2018-11-04T10:35:46.700Z,56.73
2018-11-04T10:38:15.674Z,46.97
2018-11-04T10:40:44.638Z,53.43
2018-11-04T10:43:14.553Z,56.37
2018-11-04T10:45:44.290Z,52.20
2018-11-04T10:48:13.491Z,48.83
2018-11-04T10:50:42.731Z,47.33
2018-11-04T10:53:11.894Z,54.97
2018-11-04T10:55:41.167Z,53.50
2018-11-04T10:58:10.279Z,71.53
2018-11-04T11:00:45.023Z,53.30
2018-11-04T11:03:14.588Z,55.57
2018-11-04T11:05:43.840Z,59.30
2018-11-04T11:08:14.978Z,46.73
2018-11-04T11:10:44.873Z,52.20
2018-11-04T11:13:14.416Z,55.57
2018-11-04T11:15:43.421Z,56.30
2018-11-04T11:18:12.710Z,55.80
2018-11-04T11:20:41.658Z,61.27
2018-11-04T11:23:10.682Z,60.73
2018-11-04T11:25:39.894Z,51.33
2018-11-04T11:28:10.586Z,45.87
2018-11-04T11:30:42.208Z,53.30
2018-11-04T11:39:41.888Z,58.23
2018-11-04T11:42:13.657Z,57.83
2018-11-04T11:44:44.830Z,49.00
2018-11-04T11:47:15.108Z,59.47
2018-11-04T11:49:44.770Z,55.77
2018-11-04T11:52:14.904Z,53.53
2018-11-04T11:54:45.171Z,43.33
2018-11-04T11:57:15.531Z,62.33
2018-11-04T11:59:45.102Z,52.67
2018-11-04T12:02:17.057Z,54.73
2018-11-04T12:04:47.587Z,52.80
2018-11-04T12:07:19.201Z,50.73
2018-11-04T12:09:56.582Z,58.93
2018-11-04T12:12:27.083Z,46.00
2018-11-04T12:14:57.929Z,50.10
2018-11-04T12:17:29.471Z,53.40
2018-11-04T12:19:59.117Z,53.67
2018-11-04T12:22:29.609Z,58.30
2018-11-04T12:25:00.362Z,69.67
2018-11-04T12:27:30.060Z,62.17
2018-11-04T12:30:00.674Z,58.03
2018-11-04T12:32:30.624Z,60.83
2018-11-04T12:35:02.125Z,53.80
2018-11-04T12:37:31.810Z,55.73
2018-11-04T12:40:02.862Z,62.10
2018-11-04T12:42:33.627Z,61.43
2018-11-04T12:45:06.234Z,55.47
2018-11-04T12:47:36.075Z,59.67
2018-11-04T12:50:07.793Z,54.97
2018-11-04T12:52:37.572Z,62.90
2018-11-04T12:55:07.981Z,63.40
2018-11-04T12:57:43.011Z,59.20
2018-11-04T13:00:13.939Z,60.30
2018-11-04T13:02:43.534Z,62.80
2018-11-04T13:05:12.915Z,60.63
2018-11-04T13:07:43.402Z,58.10
2018-11-04T13:10:14.133Z,67.20
2018-11-04T13:12:43.235Z,58.13
2018-11-04T13:15:13.488Z,68.07
2018-11-04T13:17:43.051Z,65.10
2018-11-04T13:20:12.272Z,53.13
2018-11-04T13:22:41.268Z,57.87
2018-11-04T13:25:10.989Z,57.00
2018-11-04T13:27:40.025Z,49.83
2018-11-04T13:30:11.247Z,55.43
2018-11-04T13:32:40.311Z,61.37
2018-11-04T13:35:09.242Z,58.93
2018-11-04T13:37:38.793Z,53.30
2018-11-04T13:40:09.534Z,56.73
2018-11-04T13:42:38.483Z,54.30
2018-11-04T13:45:08.321Z,59.80
2018-11-04T13:47:37.612Z,59.13
2018-11-04T13:50:08.765Z,57.43
2018-11-04T13:52:38.051Z,59.93
2018-11-04T13:55:07.221Z,61.90
2018-11-04T13:57:36.295Z,54.40
2018-11-04T14:00:07.034Z,56.83
2018-11-04T14:02:36.198Z,49.33
2018-11-04T14:05:06.394Z,64.07
2018-11-04T14:07:35.430Z,52.90
2018-11-04T14:10:04.648Z,59.20
2018-11-04T14:12:33.542Z,52.60
2018-11-04T14:15:02.456Z,62.87
2018-11-04T14:17:31.647Z,63.73
2018-11-04T14:20:01.081Z,56.27
2018-11-04T14:22:30.035Z,66.77
2018-11-04T14:24:59.071Z,61.50
2018-11-04T14:27:27.979Z,57.20
2018-11-04T14:29:59.219Z,60.53
2018-11-04T14:32:28.200Z,63.03
2018-11-04T14:34:57.303Z,61.73
2018-11-04T14:37:26.583Z,56.57
2018-11-04T14:39:55.500Z,59.13
2018-11-04T14:42:24.391Z,60.60
2018-11-04T14:44:53.270Z,65.40
2018-11-04T14:47:22.207Z,61.30
2018-11-04T14:49:51.347Z,58.93
2018-11-04T14:52:20.303Z,56.57
2018-11-04T14:54:49.467Z,55.30
2018-11-04T14:57:18.654Z,54.93
2018-11-04T14:59:47.609Z,60.83
2018-11-04T15:02:16.867Z,61.43
2018-11-04T15:04:45.822Z,59.40
2018-11-04T15:07:15.031Z,55.90
2018-11-04T15:09:43.949Z,63.93
2018-11-04T15:12:12.834Z,59.50
2018-11-04T15:14:42.253Z,52.27
2018-11-04T15:17:11.691Z,56.10
2018-11-04T15:19:41.147Z,56.90
2018-11-04T15:22:10.047Z,62.27
2018-11-04T15:24:39.135Z,65.70
2018-11-04T15:27:08.040Z,61.40
2018-11-04T15:29:37.222Z,51.03
2018-11-04T15:32:06.555Z,43.90
2018-11-04T15:34:35.765Z,59.50
2018-11-04T15:37:04.530Z,55.50
2018-11-04T15:39:34.023Z,67.93
2018-11-04T15:42:02.907Z,66.57
2018-11-04T15:44:32.080Z,61.10
2018-11-04T15:47:01.271Z,62.23
2018-11-04T15:49:30.879Z,68.10
2018-11-04T15:52:00.147Z,60.07
2018-11-04T15:54:29.026Z,65.33
2018-11-04T15:57:03.734Z,68.23
2018-11-04T15:59:32.918Z,59.67
2018-11-04T16:02:02.224Z,65.23
2018-11-04T16:04:31.181Z,63.93
2018-11-04T16:07:01.099Z,76.70
2018-11-04T16:09:30.009Z,66.37
2018-11-04T16:11:59.186Z,61.40
2018-11-04T16:14:28.065Z,74.77
2018-11-04T16:16:57.226Z,75.77
2018-11-04T16:19:26.663Z,71.93
2018-11-04T16:21:55.659Z,62.53
2018-11-04T16:24:24.583Z,73.73
2018-11-04T16:26:53.476Z,61.00
2018-11-04T16:29:22.424Z,69.77
2018-11-04T16:31:51.455Z,69.83
2018-11-04T16:34:20.327Z,64.90
2018-11-04T16:36:49.510Z,67.77
2018-11-04T16:39:18.722Z,68.10
2018-11-04T16:41:48.255Z,70.03
2018-11-04T16:44:18.173Z,75.07
2018-11-04T16:46:46.885Z,73.20
2018-11-04T16:49:15.815Z,68.03
2018-11-04T16:51:44.869Z,66.37
2018-11-04T16:54:13.771Z,70.27
2018-11-04T16:56:42.656Z,75.23
2018-11-04T16:59:11.530Z,65.97
2018-11-04T17:01:40.962Z,80.03
2018-11-04T17:04:10.981Z,72.33
2018-11-04T17:06:40.139Z,75.47
2018-11-04T17:09:09.387Z,67.17
2018-11-04T17:11:38.286Z,69.10
2018-11-04T17:14:07.517Z,65.60
2018-11-04T17:16:36.579Z,69.63
2018-11-04T17:19:06.130Z,71.90
2018-11-04T17:21:35.374Z,71.53
2018-11-04T17:24:06.350Z,64.73
2018-11-04T17:26:35.304Z,63.90
2018-11-04T17:29:04.834Z,56.57
2018-11-04T17:31:33.811Z,71.43
2018-11-04T17:34:03.148Z,71.40
2018-11-04T17:36:34.265Z,68.70
2018-11-04T17:39:04.820Z,65.60
2018-11-04T17:41:34.295Z,67.57
2018-11-04T17:44:03.491Z,62.57
2018-11-04T17:46:33.103Z,62.47
2018-11-04T17:49:02.304Z,67.93
2018-11-04T17:51:31.903Z,66.80
2018-11-04T17:54:01.110Z,65.70
2018-11-04T17:56:30.011Z,69.90
2018-11-04T17:58:59.394Z,63.10
2018-11-04T18:01:28.817Z,62.83
2018-11-04T18:03:58.307Z,66.17
2018-11-04T18:06:27.633Z,63.17
2018-11-04T18:08:56.536Z,60.17
2018-11-04T18:11:25.490Z,63.80
2018-11-04T18:13:54.758Z,66.63
2018-11-04T18:16:23.901Z,60.47
2018-11-04T18:18:52.799Z,58.07
2018-11-04T18:21:21.794Z,63.20
2018-11-04T18:23:51.217Z,67.00
2018-11-04T18:26:20.227Z,64.60
2018-11-04T18:28:49.078Z,58.00
2018-11-04T18:31:18.008Z,56.30
2018-11-04T18:33:47.458Z,56.10
2018-11-04T18:36:16.395Z,55.97
2018-11-04T18:38:45.422Z,61.80
2018-11-04T18:41:14.434Z,60.07
2018-11-04T18:43:43.501Z,57.27
2018-11-04T18:46:12.774Z,64.23
2018-11-04T18:48:42.024Z,62.90
2018-11-04T18:51:11.318Z,59.77
2018-11-04T18:53:40.404Z,61.83
2018-11-04T18:56:09.411Z,56.57
2018-11-04T18:58:38.912Z,49.60
2018-11-04T19:01:08.355Z,56.57
2018-11-04T19:03:37.829Z,59.17
2018-11-04T19:06:06.739Z,56.43
2018-11-04T19:08:35.652Z,50.60
2018-11-04T19:11:05.576Z,57.60
2018-11-04T19:13:35.209Z,51.83
2018-11-04T19:16:04.231Z,47.80
2018-11-04T19:18:33.181Z,48.90
2018-11-04T19:21:02.407Z,50.30
2018-11-04T19:23:31.547Z,55.17
2018-11-04T19:26:00.597Z,44.03
2018-11-04T19:28:29.827Z,48.50
2018-11-04T19:30:58.818Z,48.53
2018-11-04T19:33:27.814Z,49.23
2018-11-04T19:35:56.744Z,49.53
2018-11-04T19:38:25.860Z,44.00
2018-11-04T19:40:55.341Z,51.23
2018-11-04T19:43:24.355Z,50.20
2018-11-04T19:45:53.325Z,48.80
2018-11-04T19:48:22.418Z,43.43
2018-11-04T19:50:51.319Z,44.47
2018-11-04T19:53:20.620Z,44.67
2018-11-04T19:55:49.903Z,45.43
2018-11-04T19:58:19.100Z,47.57
2018-11-04T20:00:48.573Z,46.60
2018-11-04T20:03:17.569Z,44.53
2018-11-04T20:05:46.815Z,48.60
2018-11-04T20:08:16.305Z,47.83
2018-11-04T20:10:45.266Z,48.17
2018-11-04T20:13:19.904Z,48.40
2018-11-04T20:15:48.894Z,49.27
2018-11-04T20:18:23.180Z,52.13
2018-11-04T20:20:52.675Z,56.30
2018-11-04T20:23:21.944Z,51.10
2018-11-04T20:25:56.272Z,51.70
2018-11-04T20:28:25.839Z,50.70
2018-11-04T20:30:54.747Z,51.80
2018-11-04T20:33:23.971Z,49.30
2018-11-04T20:35:56.014Z,44.47
2018-11-04T20:38:30.779Z,48.60
2018-11-04T20:41:05.279Z,44.30
2018-11-04T20:43:34.317Z,48.30
2018-11-04T20:46:03.245Z,48.23
2018-11-04T20:48:40.031Z,45.73
2018-11-04T20:51:13.457Z,47.63
2018-11-04T20:53:45.735Z,48.60
2018-11-04T20:56:22.222Z,46.53
2018-11-04T20:58:53.051Z,43.60
2018-11-04T21:01:24.368Z,45.07
2018-11-04T21:03:55.860Z,42.77
2018-11-04T21:06:26.927Z,42.80
2018-11-04T21:08:57.880Z,46.17
2018-11-04T21:11:28.573Z,41.20
2018-11-04T21:14:00.491Z,38.13
2018-11-04T21:16:31.444Z,40.60
2018-11-04T21:19:04.007Z,40.60
2018-11-04T21:21:36.367Z,32.83
2018-11-04T21:24:07.312Z,43.63
2018-11-04T21:26:38.355Z,36.43
2018-11-04T21:29:09.899Z,36.60
2018-11-04T21:31:40.864Z,38.60
2018-11-04T21:34:12.214Z,35.37
2018-11-04T21:36:44.132Z,34.50
2018-11-04T21:39:16.748Z,34.80
2018-11-04T21:41:48.126Z,38.30
2018-11-04T21:44:20.522Z,35.73
2018-11-04T21:46:52.309Z,34.47
2018-11-04T21:49:24.510Z,34.60
2018-11-04T21:51:57.909Z,38.20
2018-11-04T21:54:28.499Z,36.43
2018-11-04T21:56:59.870Z,36.17
2018-11-04T21:59:32.678Z,37.23
2018-11-04T22:02:04.307Z,37.33
2018-11-04T22:04:36.543Z,40.37
2018-11-04T22:07:08.308Z,38.03
2018-11-04T22:09:39.233Z,33.73
2018-11-04T22:12:10.473Z,37.30
2018-11-04T22:14:41.383Z,37.23
2018-11-04T22:17:12.972Z,38.33
2018-11-04T22:19:43.989Z,38.37
2018-11-04T22:23:18.383Z,37.70
2018-11-04T22:25:49.480Z,41.87
2018-11-04T22:28:20.388Z,42.13
2018-11-04T22:30:50.275Z,40.33
2018-11-04T22:33:19.187Z,43.67
2018-11-04T22:35:48.672Z,41.10
2018-11-04T22:38:17.586Z,36.97
2018-11-04T22:40:49.765Z,40.67
2018-11-04T22:43:23.369Z,43.87
2018-11-04T22:45:56.048Z,41.10
2018-11-04T22:48:27.238Z,40.33
2018-11-04T22:50:57.812Z,34.03
2018-11-04T22:53:26.815Z,42.53
2018-11-04T22:55:55.747Z,42.30
2018-11-04T22:58:25.459Z,44.57
2018-11-04T23:00:59.509Z,42.57
2018-11-04T23:03:31.663Z,35.87
2018-11-04T23:06:05.914Z,39.80
2018-11-04T23:08:36.277Z,42.40
2018-11-04T23:11:06.605Z,38.60
2018-11-04T23:13:36.776Z,48.57
2018-11-04T23:16:06.507Z,38.40
2018-11-04T23:18:37.448Z,47.47
2018-11-04T23:21:07.451Z,44.77
2018-11-04T23:23:37.172Z,46.47
2018-11-04T23:26:07.548Z,46.03
2018-11-04T23:28:37.389Z,42.30
2018-11-04T23:31:07.361Z,41.90
2018-11-04T23:33:37.141Z,44.47
2018-11-04T23:36:07.134Z,43.77
2018-11-04T23:38:37.189Z,49.73
2018-11-04T23:41:07.322Z,49.87
2018-11-04T23:43:37.248Z,41.10
2018-11-04T23:46:08.152Z,47.67
2018-11-04T23:48:37.836Z,51.47
2018-11-04T23:51:07.575Z,45.93
2018-11-04T23:53:37.892Z,48.23
2018-11-04T23:56:07.907Z,48.47
2018-11-04T23:58:37.633Z,50.40
